VBV338 EDDF-ESGG
Flight info
| Callsign | VBV338 |
|---|---|
| Flight time | N/A |
| Altitude | 37000 |
| Route | MARUN8M/25C MARUN Y150 TOLGI DCT GOTEX N873 LOBBI |
| Aircraft | B738/M-SDE2E3FGHIRWXY/LB1 |
Departure
| Time | 2026-05-05 08:06 |
|---|---|
| Airport | Frankfurt Main Airport (EDDF) |
Arrival
| Time | N/A |
|---|---|
| Airport | Göteborg Landvetter Airport (ESGG) |
| Time | Latitude | Longitude | Altitude | Speed | Heading |
|---|---|---|---|---|---|
| 2026-05-05 07:56 | 50.04834 | 8.58509 | 372 ft | 0 kts | 159° |
| 2026-05-05 08:00 | 50.04843 | 8.58504 | 372 ft | 2 kts | 160° |
| 2026-05-05 08:01 | 50.04860 | 8.58494 | 372 ft | 3 kts | 160° |
| 2026-05-05 08:01 | 50.04878 | 8.58484 | 372 ft | 3 kts | 160° |
| 2026-05-05 08:01 | 50.04896 | 8.58476 | 372 ft | 0 kts | 174° |
| 2026-05-05 08:01 | 50.04895 | 8.58477 | 372 ft | 1 kts | 170° |
| 2026-05-05 08:02 | 50.04889 | 8.58503 | 372 ft | 0 kts | 68° |
| 2026-05-05 08:02 | 50.04889 | 8.58504 | 372 ft | 0 kts | 68° |
| 2026-05-05 08:02 | 50.04890 | 8.58506 | 372 ft | 3 kts | 68° |
| 2026-05-05 08:03 | 50.04912 | 8.58584 | 372 ft | 10 kts | 65° |
| 2026-05-05 08:03 | 50.04869 | 8.58676 | 372 ft | 16 kts | 158° |
| 2026-05-05 08:03 | 50.04734 | 8.58746 | 372 ft | 25 kts | 173° |
| 2026-05-05 08:03 | 50.04607 | 8.58728 | 372 ft | 0 kts | 197° |
| 2026-05-05 08:04 | 50.04605 | 8.58727 | 372 ft | 3 kts | 197° |
| 2026-05-05 08:04 | 50.04552 | 8.58674 | 372 ft | 15 kts | 213° |
| 2026-05-05 08:04 | 50.04500 | 8.58611 | 372 ft | 0 kts | 251° |
| 2026-05-05 08:05 | 50.04438 | 8.58347 | 372 ft | 64 kts | 249° |
| 2026-05-05 08:05 | 50.04181 | 8.57330 | 372 ft | 136 kts | 251° |
| 2026-05-05 08:05 | 50.03794 | 8.55661 | 671 ft | 180 kts | 250° |
| 2026-05-05 08:06 | 50.03357 | 8.53839 | 1702 ft | 176 kts | 250° |
| 2026-05-05 08:06 | 50.02943 | 8.52139 | 2919 ft | 164 kts | 247° |
| 2026-05-05 08:06 | 50.02259 | 8.50607 | 3525 ft | 183 kts | 226° |
| 2026-05-05 08:06 | 50.01243 | 8.49166 | 3945 ft | 210 kts | 218° |
| 2026-05-05 08:07 | 49.99996 | 8.48027 | 4714 ft | 210 kts | 200° |
| 2026-05-05 08:07 | 49.98585 | 8.47452 | 5637 ft | 207 kts | 189° |
| 2026-05-05 08:07 | 49.97157 | 8.47159 | 6484 ft | 208 kts | 185° |
| 2026-05-05 08:07 | 49.95709 | 8.46868 | 7065 ft | 212 kts | 192° |
| 2026-05-05 08:08 | 49.94282 | 8.46299 | 7622 ft | 212 kts | 196° |
| 2026-05-05 08:08 | 49.92863 | 8.45621 | 8161 ft | 213 kts | 203° |
| 2026-05-05 08:08 | 49.91719 | 8.44249 | 8660 ft | 215 kts | 232° |
| 2026-05-05 08:08 | 49.91171 | 8.42087 | 9201 ft | 220 kts | 259° |
| 2026-05-05 08:09 | 49.91144 | 8.39696 | 9761 ft | 224 kts | 270° |
| 2026-05-05 08:09 | 49.91566 | 8.37351 | 10295 ft | 233 kts | 296° |
| 2026-05-05 08:09 | 49.92708 | 8.35496 | 10846 ft | 244 kts | 322° |
| 2026-05-05 08:09 | 49.94243 | 8.34292 | 11411 ft | 251 kts | 335° |
| 2026-05-05 08:10 | 49.95896 | 8.33380 | 11967 ft | 253 kts | 336° |
| 2026-05-05 08:10 | 49.97550 | 8.32406 | 12519 ft | 255 kts | 335° |
| 2026-05-05 08:10 | 49.99202 | 8.31358 | 13072 ft | 257 kts | 333° |
| 2026-05-05 08:10 | 50.00863 | 8.30274 | 13624 ft | 259 kts | 333° |
| 2026-05-05 08:11 | 50.02524 | 8.29187 | 14175 ft | 260 kts | 333° |
| 2026-05-05 08:11 | 50.04293 | 8.28483 | 14710 ft | 268 kts | 354° |
| 2026-05-05 08:11 | 50.06169 | 8.28746 | 15272 ft | 273 kts | 8° |
| 2026-05-05 08:11 | 50.08001 | 8.29452 | 15820 ft | 277 kts | 14° |
| 2026-05-05 08:12 | 50.09867 | 8.30367 | 16378 ft | 279 kts | 17° |
| 2026-05-05 08:12 | 50.11717 | 8.31332 | 16944 ft | 281 kts | 17° |
| 2026-05-05 08:12 | 50.12347 | 8.31650 | 17145 ft | 282 kts | 16° |